Airfield :
LOGIN :

Register | Disclaimer

   EN    FR    IT 

 










Legend :    VFR   Marginal VFR   IFR   Intensive IFR   Very Intensive IFR
Visi :
Ceiling :
>= 8 km
>= 3000ft
5 to 8 km
1000 to 3000 ft
1500m to 5 km
500 to 1000 ft
800 to 1500m
200 to 500 ft
< 800m
< 200 ft
Symbols :   Thunderstorms  Fog  Heavy snow  Heavy precipitations  Wind > 20 kt
SIGMETs :     Misc.  Thunderstorms  Icing  Turbulence  Mountain Waves  Volcanic Ashes







- Airport Elevation : 844 ft
- IATA code : OSR


LKMT - Ostrava-Mosnov

CURRENT METAR :
  • 261230Z VRB07KT 9999 SCT040 07/M02 Q1025 NOSIG

EXPIRED METARs :
  • 261200Z 08009KT 040V100 9999 BKN040 07/M02 Q1025 NOSIG
  • 261130Z 06010KT 010V090 9999 SCT039 07/M03 Q1025 NOSIG
  • 261100Z 04011KT 010V070 9999 BKN040 06/M02 Q1025 NOSIG
  • 261030Z 05010KT 020V080 9999 SCT038 07/M02 Q1025 NOSIG
  • 261000Z 04013KT 9999 BKN038 06/M02 Q1025 NOSIG

TAF TAF LKMT
Valid from the 26 at 12:00 until the 27 at 18:00 UTC


261100Z 2612/2718 03010KT 9999 SCT037
TEMPO 2612/2616 04014G24KT
BECMG 2614/2616 CAVOK
BECMG 2619/2621 VRB02KT
TEMPO 2712/2717 04005KT
No reported NOTAMs for that airfield.



MET'MAP, your aeronautical weather chart ! - Copyright ORBIFLY December 2007 - Disclaimer

ORBIFLY MET'MAP TEAM :

Programming & Development : Alexandra Zaïnal
Concept & Development : Baudouin d'Aumeries
Co-Development & Prog : Marc-Olivier Méhu
Technical & hardware support : Manuel Goepfert

Contact : metmap@orbifly.com




SOURCES & CREDITS :

   NOAA